Time;durP1;ratioP1;P1;durP2;ratioP2;P2;SDS_P1;SDS_P2;PMS_P1;PMS_P2;Temp;Humidity;BMP_temperature;BMP_pressure;BME280_temperature;BME280_humidity;BME280_pressure;Samples;Min_cycle;Max_cycle;Signal;HPM_P1;HPM_P2
2022/09/15 00:02:09;;;;;;;2.33;1.40;;;;;;;;;;5139520;27;20038;-91
2022/09/15 00:04:53;;;;;;;2.45;1.50;;;;;;;;;;5139715;27;20042;-94
2022/09/15 00:07:40;;;;;;;2.10;1.40;;;;;;;;;;5155287;27;20042;-92
2022/09/15 00:10:27;;;;;;;2.75;1.58;;;;;;;;;;5138233;27;20052;-93
2022/09/15 00:13:12;;;;;;;1.92;1.30;;;;;;;;;;5139084;27;20073;-90
2022/09/15 00:15:56;;;;;;;2.95;1.50;;;;;;;;;;5118545;27;20504;-92
2022/09/15 00:18:41;;;;;;;2.75;1.60;;;;;;;;;;5136381;27;20486;-93
2022/09/15 00:21:29;;;;;;;4.75;1.30;;;;;;;;;;5154255;27;20049;-92
2022/09/15 00:24:14;;;;;;;3.25;1.80;;;;;;;;;;5138954;27;20078;-92
2022/09/15 00:26:58;;;;;;;2.75;1.60;;;;;;;;;;5134822;27;20038;-93
2022/09/15 00:29:43;;;;;;;2.75;1.63;;;;;;;;;;5144937;27;20041;-93
2022/09/15 00:32:31;;;;;;;2.50;1.55;;;;;;;;;;5138379;27;20041;-92
2022/09/15 00:35:18;;;;;;;2.28;1.30;;;;;;;;;;5138510;27;20038;-92
2022/09/15 00:38:03;;;;;;;2.50;1.42;;;;;;;;;;5154387;27;20125;-92
2022/09/15 00:40:52;;;;;;;2.30;1.50;;;;;;;;;;5128269;27;20133;-91
2022/09/15 00:43:54;;;;;;;2.47;1.40;;;;;;;;;;5153552;27;20038;-91
2022/09/15 00:46:40;;;;;;;2.13;1.23;;;;;;;;;;5153227;27;20741;-92
2022/09/15 00:49:27;;;;;;;3.63;1.42;;;;;;;;;;5136838;27;20042;-93
2022/09/15 00:52:19;;;;;;;2.85;1.30;;;;;;;;;;5124958;27;20117;-92
2022/09/15 00:55:30;;;;;;;2.83;1.45;;;;;;;;;;5138623;27;20137;-92
2022/09/15 00:58:18;;;;;;;2.15;1.30;;;;;;;;;;5150040;27;20066;-94
2022/09/15 01:01:06;;;;;;;4.43;1.45;;;;;;;;;;5136842;27;20026;-93
2022/09/15 01:03:51;;;;;;;2.20;1.38;;;;;;;;;;5138601;27;20041;-93
2022/09/15 01:06:37;;;;;;;2.55;1.05;;;;;;;;;;5138434;27;20095;-92
2022/09/15 01:09:24;;;;;;;1.83;1.08;;;;;;;;;;5137898;27;20497;-93
2022/09/15 01:12:09;;;;;;;2.00;1.20;;;;;;;;;;5138692;27;20034;-93
2022/09/15 01:14:54;;;;;;;2.53;1.20;;;;;;;;;;5103972;27;20038;-92
2022/09/15 01:17:44;;;;;;;2.33;1.42;;;;;;;;;;5133789;27;20042;-92
2022/09/15 01:20:44;;;;;;;2.40;1.45;;;;;;;;;;5126379;27;20074;-93
2022/09/15 01:23:31;;;;;;;2.55;1.30;;;;;;;;;;5141466;27;20041;-93
2022/09/15 01:26:37;;;;;;;2.20;1.45;;;;;;;;;;5135332;27;20403;-91
2022/09/15 01:29:28;;;;;;;4.20;1.38;;;;;;;;;;5147860;27;20509;-91
2022/09/15 01:35:36;;;;;;;2.80;1.67;;;;;;;;;;5145861;27;20070;-92
2022/09/15 01:38:30;;;;;;;2.45;1.50;;;;;;;;;;5137626;27;20078;-91
2022/09/15 01:41:17;;;;;;;2.70;1.40;;;;;;;;;;5153738;27;20034;-92
2022/09/15 01:44:07;;;;;;;2.33;1.23;;;;;;;;;;5137981;27;20037;-93
2022/09/15 01:46:54;;;;;;;2.80;1.30;;;;;;;;;;5147105;27;20046;-92
2022/09/15 01:49:46;;;;;;;2.40;1.50;;;;;;;;;;5117037;28;20524;-92
2022/09/15 01:52:31;;;;;;;2.22;1.25;;;;;;;;;;5132614;27;20041;-92
2022/09/15 01:55:19;;;;;;;4.22;1.27;;;;;;;;;;5153690;27;20528;-91
2022/09/15 01:58:04;;;;;;;1.98;1.30;;;;;;;;;;5141937;27;20041;-93
2022/09/15 02:00:50;;;;;;;2.85;1.33;;;;;;;;;;5140596;27;20038;-92
2022/09/15 02:03:50;;;;;;;3.53;1.45;;;;;;;;;;5154519;27;20450;-91
2022/09/15 02:06:42;;;;;;;1.92;1.25;;;;;;;;;;5156632;27;20060;-92
2022/09/15 02:09:36;;;;;;;1.60;1.10;;;;;;;;;;5141311;27;20079;-92
2022/09/15 02:12:31;;;;;;;;;;;13.80;99.90;;;;;;5158211;27;20033;-92
2022/09/15 02:15:27;;;;;;;;;;;13.70;99.90;;;;;;5130675;27;19948;-93
2022/09/15 02:18:13;;;;;;;2.03;0.88;;;;;;;;;;5143375;27;20401;-93
2022/09/15 02:21:01;;;;;;;3.35;1.10;;;;;;;;;;5142385;27;20083;-91
2022/09/15 02:23:52;;;;;;;1.73;1.02;;;;;;;;;;5140711;27;20033;-91
2022/09/15 02:26:38;;;;;;;3.20;1.15;;;;;;;;;;5130748;27;20031;-93
2022/09/15 02:29:25;;;;;;;1.58;0.90;;;;;;;;;;5125259;27;20448;-93
2022/09/15 02:32:09;;;;;;;2.10;1.10;;;;;;;;;;5155363;27;20048;-92
2022/09/15 02:34:55;;;;;;;3.15;0.90;;;;;;;;;;5120357;27;20132;-91
2022/09/15 02:37:39;;;;;;;1.67;0.90;;;;;;;;;;5137078;27;20418;-93
2022/09/15 02:40:24;;;;;;;1.77;1.13;;;;;;;;;;5157001;27;20482;-92
2022/09/15 02:43:10;;;;;;;0.95;0.80;;;;;;;;;;5155002;27;20114;-94
2022/09/15 02:45:55;;;;;;;1.30;0.90;;;;;;;;;;5140418;27;20051;-93
2022/09/15 02:48:39;;;;;;;0.82;0.68;;;;;;;;;;5149634;27;20085;-93
2022/09/15 02:51:24;;;;;;;1.70;0.80;;;;;;;;;;5121305;27;20037;-93
2022/09/15 02:54:09;;;;;;;0.77;0.60;;;;;;;;;;5126649;27;20417;-93
2022/09/15 02:56:53;;;;;;;1.40;0.65;;;;;;;;;;5140120;27;20113;-93
2022/09/15 03:02:43;;;;;;;1.88;0.70;;;;;;;;;;5135079;27;20081;-92
2022/09/15 03:05:28;;;;;;;1.75;0.57;;;;;;;;;;5128366;27;20091;-91
2022/09/15 03:08:13;;;;;;;1.10;0.82;;;;;;;;;;5156150;27;20085;-94
2022/09/15 03:10:58;;;;;;;0.90;0.60;;;;;;;;;;5146100;27;20065;-94
2022/09/15 03:13:43;;;;;;;0.50;0.50;;;;;;;;;;5137981;27;20080;-94
2022/09/15 03:16:28;;;;;;;0.57;0.57;;;;;;;;;;5128497;27;20165;-95
2022/09/15 03:19:13;;;;;;;1.63;0.60;;;;;;;;;;5135667;27;20488;-94
2022/09/15 03:21:57;;;;;;;0.57;0.50;;;;;;;;;;5124364;27;20056;-95
2022/09/15 03:24:42;;;;;;;1.27;0.73;;;;;;;;;;5155404;27;20067;-93
2022/09/15 03:27:26;;;;;;;0.95;0.60;;;;;;;;;;5155826;27;20425;-94
2022/09/15 03:30:11;;;;;;;0.93;0.50;;;;;;;;;;5156171;27;20037;-92
2022/09/15 03:32:56;;;;;;;0.65;0.65;;;;;;;;;;5142361;27;20037;-94
2022/09/15 03:35:41;;;;;;;0.50;0.50;;;;;;;;;;5139527;27;20034;-92
2022/09/15 03:38:25;;;;;;;0.90;0.60;;;;;;;;;;5137883;27;20137;-94
2022/09/15 03:41:11;;;;;;;0.50;0.50;;;;;;;;;;5119681;27;20034;-94
2022/09/15 03:43:56;;;;;;;0.60;0.60;;;;;;;;;;5148928;27;20431;-93
2022/09/15 03:46:41;;;;;;;0.50;0.50;;;;;;;;;;5139730;27;20061;-91
2022/09/15 03:49:25;;;;;;;0.85;0.63;;;;;;;;;;5155386;27;20083;-92
2022/09/15 03:52:11;;;;;;;0.73;0.50;;;;;;;;;;5139820;27;20033;-92
2022/09/15 03:54:55;;;;;;;0.77;0.70;;;;;;;;;;5123143;27;20042;-93
2022/09/15 03:57:40;;;;;;;0.60;0.60;;;;;;;;;;5119339;27;20048;-94
2022/09/15 04:00:24;;;;;;;0.52;0.52;;;;;;;;;;5155393;27;20042;-94
2022/09/15 04:03:09;;;;;;;0.50;0.50;;;;;;;;;;5139181;27;20498;-93
2022/09/15 04:05:53;;;;;;;0.50;0.50;;;;;;;;;;5129555;27;20042;-92
2022/09/15 04:08:38;;;;;;;0.90;0.47;;;;;;;;;;5136913;27;20037;-93
2022/09/15 04:11:23;;;;;;;0.52;0.52;;;;;;;;;;5136282;27;20103;-93
2022/09/15 04:14:08;;;;;;;0.82;0.63;;;;;;;;;;5147377;27;20050;-92
2022/09/15 04:16:52;;;;;;;0.68;0.50;;;;;;;;;;5122823;27;20050;-93
2022/09/15 04:19:36;;;;;;;0.63;0.60;;;;;;;;;;5114361;27;20088;-94
2022/09/15 04:22:21;;;;;;;0.50;0.50;;;;;;;;;;5137989;27;20054;-94
2022/09/15 04:25:08;;;;;;;0.63;0.50;;;;;;;;;;5124361;27;20099;-94
2022/09/15 04:27:52;;;;;;;2.45;0.80;;;;;;;;;;5144841;27;20038;-94
2022/09/15 04:30:37;;;;;;;1.30;0.70;;;;;;;;;;5123985;27;20045;-93
2022/09/15 04:33:21;;;;;;;1.30;0.60;;;;;;;;;;5136817;27;20109;-93
2022/09/15 04:36:08;;;;;;;1.90;0.93;;;;;;;;;;5132497;27;20057;-92
2022/09/15 04:38:52;;;;;;;0.80;0.70;;;;;;;;;;5149860;27;20038;-93
2022/09/15 04:41:37;;;;;;;0.93;0.70;;;;;;;;;;5136950;27;20160;-95
2022/09/15 04:44:21;;;;;;;0.52;0.52;;;;;;;;;;5144130;27;20038;-93
2022/09/15 04:47:06;;;;;;;0.50;0.50;;;;;;;;;;5108502;27;20410;-93
2022/09/15 04:49:50;;;;;;;1.80;0.90;;;;;;;;;;5138488;27;20065;-91
2022/09/15 04:52:35;;;;;;;2.25;0.60;;;;;;;;;;5110245;27;20513;-94
2022/09/15 04:55:20;;;;;;;0.60;0.60;;;;;;;;;;5154549;27;20065;-92
2022/09/15 04:58:04;;;;;;;2.33;0.82;;;;;;;;;;5116847;27;20640;-92
2022/09/15 05:00:49;;;;;;;1.10;0.70;;;;;;;;;;5139350;27;20073;-93
2022/09/15 05:03:35;;;;;;;1.23;0.70;;;;;;;;;;5129793;27;20421;-92
2022/09/15 05:06:21;;;;;;;1.10;0.57;;;;;;;;;;5127869;27;20069;-91
2022/09/15 05:09:06;;;;;;;0.63;0.57;;;;;;;;;;5131777;27;20041;-91
2022/09/15 05:11:51;;;;;;;0.57;0.55;;;;;;;;;;5124855;27;20098;-91
2022/09/15 05:14:36;;;;;;;0.80;0.80;;;;;;;;;;5139097;27;20049;-91
2022/09/15 05:17:23;;;;;;;0.63;0.52;;;;;;;;;;5145866;27;20505;-90
2022/09/15 05:20:10;;;;;;;0.50;0.50;;;;;;;;;;5124658;27;20418;-90
2022/09/15 05:22:55;;;;;;;0.50;0.50;;;;;;;;;;5139988;27;20066;-90
2022/09/15 05:25:40;;;;;;;3.20;0.77;;;;;;;;;;5121270;27;20427;-92
2022/09/15 05:28:25;;;;;;;0.60;0.60;;;;;;;;;;5127149;27;20079;-92
2022/09/15 05:31:11;;;;;;;1.02;0.77;;;;;;;;;;5125625;27;20077;-94
2022/09/15 05:33:55;;;;;;;1.85;0.60;;;;;;;;;;5119771;27;20158;-93
2022/09/15 05:36:40;;;;;;;1.65;0.80;;;;;;;;;;5132820;27;20034;-95
2022/09/15 05:39:25;;;;;;;2.17;0.70;;;;;;;;;;5131540;27;20055;-93
2022/09/15 05:42:10;;;;;;;0.55;0.50;;;;;;;;;;5149151;27;20118;-95
2022/09/15 05:44:55;;;;;;;1.20;0.70;;;;;;;;;;5133295;27;20045;-94
2022/09/15 05:47:39;;;;;;;1.25;0.70;;;;;;;;;;5127328;27;20066;-92
2022/09/15 05:50:24;;;;;;;0.50;0.50;;;;;;;;;;5126906;27;20498;-93
2022/09/15 05:53:08;;;;;;;1.15;0.80;;;;;;;;;;5123296;27;20038;-93
2022/09/15 05:56:01;;;;;;;0.85;0.55;;;;;;;;;;5157467;27;20037;-93
2022/09/15 05:58:46;;;;;;;0.75;0.60;;;;;;;;;;5123261;27;20033;-93
2022/09/15 06:01:31;;;;;;;2.50;0.60;;;;;;;;;;5124931;27;20030;-92
2022/09/15 06:04:16;;;;;;;0.55;0.50;;;;;;;;;;5120767;27;20054;-95
2022/09/15 06:07:01;;;;;;;0.50;0.50;;;;;;;;;;5142972;27;20037;-95
2022/09/15 06:09:45;;;;;;;0.93;0.60;;;;;;;;;;5156993;27;20042;-94
2022/09/15 06:12:30;;;;;;;5.32;0.70;;;;;;;;;;5108674;27;20033;-94
2022/09/15 06:15:17;;;;;;;3.15;0.70;;;;;;;;;;5139366;27;20546;-92
2022/09/15 06:18:01;;;;;;;3.05;0.75;;;;;;;;;;5140671;27;20573;-92
2022/09/15 06:20:46;;;;;;;0.90;0.70;;;;;;;;;;5118363;27;20536;-93
2022/09/15 06:23:31;;;;;;;0.88;0.63;;;;;;;;;;5152777;27;20091;-94
2022/09/15 06:26:20;;;;;;;2.42;0.77;;;;;;;;;;5109306;27;20042;-94
2022/09/15 06:29:07;;;;;;;1.60;0.77;;;;;;;;;;5120861;27;20035;-90
2022/09/15 06:31:52;;;;;;;0.73;0.50;;;;;;;;;;5115450;27;20058;-91
2022/09/15 06:34:37;;;;;;;0.65;0.52;;;;;;;;;;5144038;27;20109;-93
2022/09/15 06:37:21;;;;;;;2.05;0.70;;;;;;;;;;5124444;27;20057;-92
2022/09/15 06:40:07;;;;;;;2.25;1.15;;;;;;;;;;5155436;27;20069;-91
2022/09/15 06:42:54;;;;;;;1.48;0.70;;;;;;;;;;5140022;27;20041;-91
2022/09/15 06:45:39;;;;;;;1.02;0.70;;;;;;;;;;5128251;27;20516;-90
2022/09/15 06:48:24;;;;;;;1.02;0.52;;;;;;;;;;5140686;27;20099;-91
2022/09/15 06:51:13;;;;;;;4.05;0.73;;;;;;;;;;5136787;27;20046;-90
2022/09/15 06:53:57;;;;;;;2.50;0.80;;;;;;;;;;5146512;27;20439;-89
2022/09/15 06:56:42;;;;;;;0.50;0.50;;;;;;;;;;5125996;27;20430;-90
2022/09/15 06:59:27;;;;;;;2.25;0.70;;;;;;;;;;5134944;27;20045;-92
2022/09/15 07:02:11;;;;;;;1.90;0.63;;;;;;;;;;5149077;27;20079;-91
2022/09/15 07:04:56;;;;;;;0.55;0.55;;;;;;;;;;5127842;27;20042;-89
2022/09/15 07:07:40;;;;;;;0.65;0.55;;;;;;;;;;5151883;27;20095;-90
2022/09/15 07:10:28;;;;;;;1.77;0.60;;;;;;;;;;5136599;27;20493;-90
2022/09/15 07:13:12;;;;;;;1.08;0.68;;;;;;;;;;5152380;27;20042;-90
2022/09/15 07:15:58;;;;;;;1.13;0.60;;;;;;;;;;5134384;27;20076;-89
2022/09/15 07:18:43;;;;;;;1.02;0.68;;;;;;;;;;5130710;27;20083;-90
2022/09/15 07:21:28;;;;;;;2.10;0.90;;;;;;;;;;5153942;27;20038;-91
2022/09/15 07:24:13;;;;;;;3.88;0.60;;;;;;;;;;5138530;27;20159;-90
2022/09/15 07:26:58;;;;;;;3.83;0.60;;;;;;;;;;5133894;27;20064;-89
2022/09/15 07:29:42;;;;;;;1.05;0.70;;;;;;;;;;5131519;27;20046;-90
2022/09/15 07:32:27;;;;;;;2.50;0.60;;;;;;;;;;5118746;27;20200;-89
2022/09/15 07:35:11;;;;;;;1.73;0.52;;;;;;;;;;5121282;27;20034;-89
2022/09/15 07:37:56;;;;;;;0.70;0.70;;;;;;;;;;5142473;27;20477;-90
2022/09/15 07:40:40;;;;;;;0.77;0.73;;;;;;;;;;5148761;27;20037;-89
2022/09/15 07:43:25;;;;;;;2.35;0.60;;;;;;;;;;5154673;27;20034;-89
2022/09/15 07:46:09;;;;;;;0.50;0.50;;;;;;;;;;5130884;27;20493;-93
2022/09/15 07:48:55;;;;;;;1.48;0.60;;;;;;;;;;5118771;27;20062;-89
2022/09/15 07:51:39;;;;;;;0.70;0.60;;;;;;;;;;5132439;27;20070;-89
2022/09/15 07:54:24;;;;;;;0.43;0.40;;;;;;;;;;5119602;27;20150;-88
2022/09/15 07:57:08;;;;;;;1.60;0.50;;;;;;;;;;5139602;27;20041;-89
2022/09/15 07:59:53;;;;;;;1.25;0.60;;;;;;;;;;5139292;27;20037;-90
2022/09/15 08:02:38;;;;;;;0.40;0.40;;;;;;;;;;5144784;27;20033;-91
2022/09/15 08:05:27;;;;;;;0.77;0.60;;;;;;;;;;5146773;27;20038;-88
2022/09/15 08:08:11;;;;;;;1.02;0.50;;;;;;;;;;5128181;27;20123;-90
2022/09/15 08:10:56;;;;;;;0.55;0.55;;;;;;;;;;5119976;27;20112;-89
2022/09/15 08:13:41;;;;;;;0.50;0.50;;;;;;;;;;5118596;27;20070;-88
2022/09/15 08:16:25;;;;;;;1.63;0.50;;;;;;;;;;5117899;27;20034;-88
2022/09/15 08:19:11;;;;;;;0.40;0.40;;;;;;;;;;5119889;27;20034;-88
2022/09/15 08:21:56;;;;;;;0.63;0.45;;;;;;;;;;5129755;27;20033;-88
2022/09/15 08:24:41;;;;;;;0.50;0.50;;;;;;;;;;5131305;27;20076;-88
2022/09/15 08:27:25;;;;;;;1.40;0.52;;;;;;;;;;5136122;27;20042;-87
2022/09/15 08:30:10;;;;;;;0.47;0.40;;;;;;;;;;5129270;27;20046;-88
2022/09/15 08:32:56;;;;;;;2.17;0.60;;;;;;;;;;5138679;27;20034;-87
2022/09/15 08:35:40;;;;;;;1.63;0.55;;;;;;;;;;5154362;27;20042;-89
2022/09/15 08:38:25;;;;;;;0.52;0.40;;;;;;;;;;5103708;27;20127;-87
2022/09/15 08:41:18;;;;;;;0.70;0.60;;;;;;;;;;5133509;27;20080;-88
2022/09/15 08:44:33;;;;;;;0.63;0.60;;;;;;;;;;5152403;27;20492;-88
2022/09/15 08:47:17;;;;;;;;;;;;;;;;;;5118668;27;20184;-94
2022/09/15 08:50:04;;;;;;;2.05;0.50;;;;;;;;;;5127361;27;20435;-88
2022/09/15 08:52:52;;;;;;;4.38;0.60;;;;;;;;;;5118398;27;20038;-88
2022/09/15 08:55:40;;;;;;;2.13;0.85;;;;;;;;;;5118000;28;20066;-87
2022/09/15 08:58:33;;;;;;;3.35;0.90;;;;;;;;;;5123896;27;20402;-87
2022/09/15 09:01:21;;;;;;;0.70;0.70;;;;;;;;;;5151944;27;20064;-90
2022/09/15 09:04:12;;;;;;;0.50;0.40;;;;;;;;;;5120747;27;20060;-87
2022/09/15 09:07:12;;;;;;;1.95;0.50;;;;;;;;;;5138517;27;20042;-87
2022/09/15 09:10:03;;;;;;;0.75;0.50;;;;;;;;;;5152620;27;20436;-87
2022/09/15 09:13:02;;;;;;;0.82;0.63;;;;;;;;;;5122420;27;20038;-89
2022/09/15 09:16:08;;;;;;;3.05;1.40;;;;;;;;;;5147035;27;20037;-88
2022/09/15 09:19:08;;;;;;;0.50;0.50;;;;;;;;;;5127881;27;20061;-89
2022/09/15 09:21:59;;;;;;;0.68;0.60;;;;;;;;;;5142202;27;20034;-89
2022/09/15 09:24:46;;;;;;;0.80;0.60;;;;;;;;;;5157931;27;20041;-88
2022/09/15 09:27:38;;;;;;;1.95;0.90;;;;;;;;;;5156643;27;20079;-88
2022/09/15 09:30:23;;;;;;;1.05;0.65;;;;;;;;;;5141197;27;20119;-88
2022/09/15 09:33:38;;;;;;;1.65;0.60;;;;;;;;;;5154024;27;20060;-90
2022/09/15 09:36:23;;;;;;;;;;;;;;;;;;5136062;27;20554;-92
2022/09/15 09:39:08;;;;;;;2.50;1.20;;;;;;;;;;5142028;27;19924;-88
2022/09/15 09:41:53;;;;;;;0.50;0.50;;;;;;;;;;5151189;27;20410;-89
2022/09/15 09:44:41;;;;;;;1.25;0.50;;;;;;;;;;5121267;27;20033;-87
2022/09/15 09:47:29;;;;;;;0.43;0.40;;;;;;;;;;5141321;27;20047;-92
2022/09/15 09:50:32;;;;;;;2.10;0.80;;;;;;;;;;5141309;27;20038;-88
2022/09/15 09:53:16;;;;;;;0.60;0.60;;;;;;;;;;5143259;27;20492;-87
2022/09/15 09:56:15;;;;;;;0.70;0.70;;;;;;;;;;5157162;27;20543;-87
2022/09/15 09:59:03;;;;;;;0.57;0.57;;;;;;;;;;5158215;27;20076;-90
2022/09/15 10:02:06;;;;;;;0.70;0.40;;;;;;;;;;5142954;27;20086;-91
2022/09/15 10:04:52;;;;;;;0.30;0.30;;;;;;;;;;5139571;27;20072;-91
2022/09/15 10:07:42;;;;;;;0.40;0.40;;;;;;;;;;5134186;27;20084;-93
2022/09/15 10:10:31;;;;;;;1.27;0.70;;;;;;;;;;5142247;27;20547;-94
2022/09/15 10:13:15;;;;;;;0.50;0.50;;;;;;;;;;5146295;27;20394;-93
2022/09/15 10:16:01;;;;;;;0.40;0.40;;;;;;;;;;5142262;27;20124;-93
2022/09/15 10:18:48;;;;;;;0.65;0.60;;;;;;;;;;5130763;27;20080;-93
2022/09/15 10:21:38;;;;;;;0.40;0.40;;;;;;;;;;5141612;27;20051;-92
2022/09/15 10:24:31;;;;;;;0.40;0.40;;;;;;;;;;5141598;27;20030;-91
2022/09/15 10:27:37;;;;;;;0.30;0.30;;;;;;;;;;5157064;27;20056;-90
2022/09/15 10:30:23;;;;;;;0.43;0.40;;;;;;;;;;5127786;27;20049;-90
2022/09/15 10:33:18;;;;;;;0.60;0.50;;;;;;;;;;5134136;27;20464;-91
2022/09/15 10:36:13;;;;;;;1.02;1.00;;;;;;;;;;5139530;27;20080;-90
2022/09/15 10:39:16;;;;;;;0.30;0.30;;;;;;;;;;5141845;27;20121;-90
2022/09/15 10:42:06;;;;;;;0.32;0.32;;;;;;;;;;5120783;27;20080;-91
2022/09/15 10:44:59;;;;;;;0.55;0.40;;;;;;;;;;5120683;27;20386;-91
2022/09/15 10:48:07;;;;;;;0.65;0.50;;;;;;;;;;5120686;27;20136;-90
2022/09/15 10:51:01;;;;;;;0.40;0.40;;;;;;;;;;5150739;27;20114;-90
2022/09/15 10:54:07;;;;;;;2.50;0.57;;;;;;;;;;5139682;27;20037;-89
2022/09/15 10:56:56;;;;;;;0.43;0.43;;;;;;;;;;5142051;27;20519;-88
2022/09/15 10:59:56;;;;;;;0.95;0.50;;;;;;;;;;5120622;27;20153;-87
2022/09/15 11:02:54;;;;;;;0.82;0.50;;;;;;;;;;5119287;27;20410;-87
2022/09/15 11:05:38;;;;;;;0.50;0.50;;;;;;;;;;5134762;27;20034;-90
2022/09/15 11:08:38;;;;;;;0.50;0.50;;;;;;;;;;5140003;27;20125;-88
2022/09/15 11:11:23;;;;;;;1.02;0.52;;;;;;;;;;5139899;27;20513;-89
2022/09/15 11:14:17;;;;;;;0.50;0.50;;;;;;;;;;5141121;27;20034;-89
2022/09/15 11:17:22;;;;;;;0.88;0.50;;;;;;;;;;5152668;27;20402;-89
2022/09/15 11:20:12;;;;;;;2.00;0.50;;;;;;;;;;5139862;27;20045;-88
2022/09/15 11:23:10;;;;;;;0.45;0.45;;;;;;;;;;5139127;27;20115;-88
2022/09/15 11:25:59;;;;;;;0.63;0.50;;;;;;;;;;5153524;27;20060;-90
2022/09/15 11:28:46;;;;;;;0.73;0.50;;;;;;;;;;5147117;27;20042;-89
2022/09/15 11:31:37;;;;;;;0.55;0.50;;;;;;;;;;5150523;27;20053;-89
2022/09/15 11:34:32;;;;;;;1.50;0.60;;;;;;;;;;5146554;27;20148;-89
2022/09/15 11:37:20;;;;;;;0.55;0.40;;;;;;;;;;5143228;27;20124;-89
2022/09/15 11:40:06;;;;;;;3.15;0.50;;;;;;;;;;5134469;27;20033;-90
2022/09/15 11:42:59;;;;;;;0.50;0.50;;;;;;;;;;5118771;27;20106;-91
2022/09/15 11:45:47;;;;;;;0.52;0.50;;;;;;;;;;5150043;27;20071;-89
2022/09/15 11:48:43;;;;;;;1.02;0.60;;;;;;;;;;5155122;27;20099;-90
2022/09/15 11:51:28;;;;;;;0.40;0.40;;;;;;;;;;5155633;27;20382;-93
2022/09/15 11:54:17;;;;;;;0.50;0.50;;;;;;;;;;5139546;27;20038;-93
2022/09/15 11:57:02;;;;;;;0.40;0.40;;;;;;;;;;5139334;27;20631;-93
2022/09/15 11:59:53;;;;;;;0.63;0.63;;;;;;;;;;5118678;27;20038;-93
2022/09/15 12:02:53;;;;;;;0.40;0.40;;;;;;;;;;5134790;27;20055;-93
2022/09/15 12:05:42;;;;;;;0.40;0.40;;;;;;;;;;5129161;27;20113;-92
2022/09/15 12:08:49;;;;;;;0.40;0.40;;;;;;;;;;5139245;27;20041;-93
2022/09/15 12:11:36;;;;;;;0.80;0.40;;;;;;;;;;5138242;27;20559;-92
2022/09/15 12:14:28;;;;;;;1.70;0.40;;;;;;;;;;5122579;27;20514;-92
2022/09/15 12:17:31;;;;;;;0.28;0.28;;;;;;;;;;5130995;27;20038;-90
2022/09/15 12:20:28;;;;;;;0.82;0.32;;;;;;;;;;5139089;27;20114;-91
2022/09/15 12:23:21;;;;;;;0.40;0.40;;;;;;;;;;5138745;27;20042;-92
2022/09/15 12:26:17;;;;;;;0.45;0.38;;;;;;;;;;5125987;27;20088;-94
2022/09/15 12:29:02;;;;;;;0.40;0.40;;;;;;;;;;5142134;27;20113;-92
2022/09/15 12:31:47;;;;;;;0.40;0.40;;;;;;;;;;5135099;27;20132;-95
2022/09/15 12:34:34;;;;;;;0.40;0.40;;;;;;;;;;5131065;27;20113;-93
2022/09/15 12:37:19;;;;;;;0.30;0.30;;;;;;;;;;5139375;27;20114;-92
2022/09/15 12:40:24;;;;;;;0.30;0.30;;;;;;;;;;5139707;27;20033;-93
2022/09/15 12:43:15;;;;;;;0.40;0.40;;;;;;;;;;5140960;27;20038;-90
2022/09/15 12:46:00;;;;;;;2.17;0.45;;;;;;;;;;5141454;27;20041;-95
2022/09/15 12:48:54;;;;;;;0.50;0.40;;;;;;;;;;5136951;27;20062;-91
2022/09/15 12:51:48;;;;;;;0.95;0.50;;;;;;;;;;5118817;28;20047;-90
2022/09/15 12:54:33;;;;;;;1.17;0.90;;;;;;;;;;5134631;27;20045;-91
2022/09/15 12:57:38;;;;;;;0.57;0.38;;;;;;;;;;5124168;27;20045;-90
2022/09/15 13:00:34;;;;;;;0.55;0.50;;;;;;;;;;5138586;27;20034;-88
2022/09/15 13:03:42;;;;;;;0.32;0.32;;;19.60;95.80;;;;;;5153914;27;20076;-89
2022/09/15 13:06:28;;;;;;;1.08;0.47;;;19.00;98.10;;;;;;5111105;27;20062;-89
2022/09/15 13:09:27;;;;;;;0.38;0.30;;;;;;;;;;5137562;27;20683;-88
2022/09/15 13:12:15;;;;;;;0.73;0.40;;;;;;;;;;5132844;27;20132;-89
2022/09/15 13:15:01;;;;;;;0.65;0.40;;;;;;;;;;5149831;27;20034;-90
2022/09/15 13:17:46;;;;;;;0.30;0.30;;;;;;;;;;5152152;27;20102;-90
2022/09/15 13:20:33;;;;;;;0.47;0.47;;;;;;;;;;5132978;27;20037;-90
2022/09/15 13:23:22;;;;;;;2.22;0.60;;;;;;;;;;5134374;27;20096;-90
2022/09/15 13:26:11;;;;;;;0.43;0.43;;;17.70;99.90;;;;;;5122959;27;20482;-89
2022/09/15 13:28:56;;;;;;;1.33;0.45;;;;;;;;;;5142999;27;20041;-93
2022/09/15 13:31:41;;;;;;;0.40;0.40;;;;;;;;;;5123637;27;20053;-91
2022/09/15 13:34:25;;;;;;;1.27;0.50;;;;;;;;;;5133840;27;20082;-91
2022/09/15 13:37:16;;;;;;;0.75;0.50;;;;;;;;;;5120415;27;20431;-91
2022/09/15 13:40:08;;;;;;;0.60;0.60;;;;;;;;;;5133776;27;20489;-90
2022/09/15 13:43:08;;;;;;;2.75;0.77;;;;;;;;;;5126001;27;20378;-90
2022/09/15 13:45:57;;;;;;;1.55;0.70;;;;;;;;;;5147249;27;20079;-89
2022/09/15 13:48:41;;;;;;;0.68;0.52;;;;;;;;;;5129703;28;20065;-90
2022/09/15 13:51:30;;;;;;;0.38;0.38;;;;;;;;;;5135920;27;20068;-91
2022/09/15 13:54:17;;;;;;;0.55;0.50;;;;;;;;;;5121139;27;20079;-91
2022/09/15 13:57:02;;;;;;;1.88;0.60;;;;;;;;;;5136235;27;20038;-92
2022/09/15 13:59:49;;;;;;;0.57;0.57;;;;;;;;;;5142065;27;20033;-93
2022/09/15 14:02:34;;;;;;;0.40;0.40;;;;;;;;;;5140915;27;20546;-91
2022/09/15 14:05:22;;;;;;;0.40;0.40;;;;;;;;;;5136056;27;20037;-93
2022/09/15 14:08:09;;;;;;;1.10;0.57;;;;;;;;;;5136020;27;20494;-90
2022/09/15 14:11:07;;;;;;;0.93;0.57;;;;;;;;;;5136267;27;20045;-93
2022/09/15 14:13:53;;;;;;;0.88;0.70;;;;;;;;;;5150995;27;20045;-92
2022/09/15 14:16:38;;;;;;;0.40;0.40;;;;;;;;;;5136774;27;20034;-93
2022/09/15 14:19:33;;;;;;;1.33;0.50;;;;;;;;;;5128261;27;20041;-93
2022/09/15 14:22:25;;;;;;;0.40;0.40;;;;;;;;;;5156763;27;20095;-89
2022/09/15 14:25:15;;;;;;;1.38;0.60;;;;;;;;;;5136270;27;20034;-91
2022/09/15 14:28:03;;;;;;;0.98;0.80;;;;;;;;;;5139283;27;20038;-90
2022/09/15 14:30:48;;;;;;;0.50;0.50;;;;;;;;;;5156424;27;20041;-91
2022/09/15 14:33:35;;;;;;;1.63;0.77;;;;;;;;;;5124078;27;20119;-91
2022/09/15 14:36:25;;;;;;;0.40;0.40;;;;;;;;;;5156033;27;20038;-90
2022/09/15 14:39:22;;;;;;;0.50;0.50;;;;;;;;;;5156285;27;20094;-90
2022/09/15 14:42:10;;;;;;;0.52;0.50;;;;;;;;;;5155715;27;20394;-90
2022/09/15 14:44:57;;;;;;;0.50;0.50;;;;;;;;;;5135928;27;20436;-91
2022/09/15 14:47:42;;;;;;;0.57;0.57;;;;;;;;;;5138608;27;20054;-90
2022/09/15 14:50:27;;;;;;;0.82;0.60;;;;;;;;;;5139935;27;20070;-90
2022/09/15 14:53:16;;;;;;;0.80;0.65;;;;;;;;;;5140402;27;20053;-92
2022/09/15 14:56:10;;;;;;;0.45;0.45;;;;;;;;;;5142099;27;20038;-93
2022/09/15 14:58:56;;;;;;;3.08;0.60;;;;;;;;;;5130362;27;20045;-91
2022/09/15 15:02:02;;;;;;;0.90;0.60;;;16.70;99.90;;;;;;5155106;27;20391;-92
2022/09/15 15:04:51;;;;;;;0.70;0.60;;;;;;;;;;5126001;27;20042;-91
2022/09/15 15:07:36;;;;;;;0.95;0.52;;;;;;;;;;5156426;27;20046;-91
2022/09/15 15:10:27;;;;;;;0.50;0.50;;;;;;;;;;5140262;27;20406;-90
2022/09/15 15:13:14;;;;;;;1.63;0.55;;;;;;;;;;5140256;27;20508;-90
2022/09/15 15:15:59;;;;;;;1.52;0.55;;;;;;;;;;5156047;27;20033;-89
2022/09/15 15:18:44;;;;;;;0.68;0.45;;;;;;;;;;5141357;27;20041;-91
2022/09/15 15:21:28;;;;;;;0.50;0.50;;;;;;;;;;5139763;27;20064;-90
2022/09/15 15:24:13;;;;;;;0.50;0.50;;;;;;;;;;5143631;27;20033;-89
2022/09/15 15:26:57;;;;;;;0.50;0.50;;;;;;;;;;5139797;27;20029;-89
2022/09/15 15:29:43;;;;;;;1.50;0.70;;;;;;;;;;5155839;27;20046;-89
2022/09/15 15:32:28;;;;;;;1.77;0.80;;;;;;;;;;5141274;27;20075;-90
2022/09/15 15:35:14;;;;;;;0.70;0.50;;;;;;;;;;5155092;27;20042;-89
2022/09/15 15:38:03;;;;;;;2.67;0.80;;;;;;;;;;5139781;27;20084;-89
2022/09/15 15:40:48;;;;;;;0.50;0.50;;;;;;;;;;5155275;27;20048;-89
2022/09/15 15:43:36;;;;;;;1.55;0.60;;;;;;;;;;5139291;27;20113;-89
2022/09/15 15:47:00;;;;;;;0.50;0.50;;;15.00;99.90;;;;;;5154958;27;20034;-89
2022/09/15 15:49:44;;;;;;;0.50;0.50;;;;;;;;;;5155169;27;20398;-90
2022/09/15 15:52:29;;;;;;;1.38;0.57;;;;;;;;;;5154836;27;20033;-91
2022/09/15 15:55:19;;;;;;;0.45;0.45;;;15.00;99.90;;;;;;5147054;27;20044;-90
2022/09/15 15:58:04;;;;;;;1.15;0.80;;;;;;;;;;5152262;27;20037;-89
2022/09/15 16:00:50;;;;;;;1.15;0.63;;;;;;;;;;5142671;27;20031;-90
2022/09/15 16:03:35;;;;;;;0.93;0.80;;;;;;;;;;5133942;27;20432;-90
2022/09/15 16:06:19;;;;;;;0.60;0.60;;;;;;;;;;5149601;27;20056;-90
2022/09/15 16:09:04;;;;;;;0.55;0.55;;;;;;;;;;5139323;27;20142;-90
2022/09/15 16:11:50;;;;;;;0.88;0.60;;;;;;;;;;5124564;27;20073;-89
2022/09/15 16:14:34;;;;;;;0.85;0.60;;;;;;;;;;5123931;27;20042;-89
2022/09/15 16:17:19;;;;;;;0.60;0.60;;;;;;;;;;5141770;27;20406;-90
2022/09/15 16:20:04;;;;;;;0.60;0.60;;;;;;;;;;5138940;27;20082;-90
2022/09/15 16:22:49;;;;;;;0.80;0.63;;;;;;;;;;5127627;27;20073;-91
2022/09/15 16:25:35;;;;;;;1.20;0.60;;;;;;;;;;5153877;27;20079;-90
2022/09/15 16:28:20;;;;;;;1.85;1.50;;;;;;;;;;5138210;27;20087;-90
2022/09/15 16:31:05;;;;;;;4.00;0.60;;;;;;;;;;5138767;27;20054;-90
2022/09/15 16:33:49;;;;;;;0.50;0.50;;;;;;;;;;5154318;27;20123;-90
2022/09/15 16:36:35;;;;;;;1.65;0.50;;;;;;;;;;5138462;27;20115;-90
2022/09/15 16:39:20;;;;;;;0.50;0.50;;;;;;;;;;5138761;27;20037;-91
2022/09/15 16:42:04;;;;;;;0.57;0.57;;;;;;;;;;5138529;27;20146;-91
2022/09/15 16:44:49;;;;;;;0.68;0.60;;;;;;;;;;5132683;27;20413;-91
2022/09/15 16:47:34;;;;;;;1.88;0.60;;;;;;;;;;5151125;27;20061;-91
2022/09/15 16:50:18;;;;;;;0.50;0.50;;;;;;;;;;5136004;27;20501;-93
2022/09/15 16:53:03;;;;;;;1.00;0.60;;;;;;;;;;5138272;27;20061;-90